createdAt,value
2022-10-22T04:00:52.165Z,73.52
2022-10-22T04:04:54.808Z,73.32
2022-10-22T04:08:58.042Z,73.57
2022-10-22T04:13:00.675Z,73.60
2022-10-22T04:17:04.646Z,73.45
2022-10-22T04:21:08.525Z,73.79
2022-10-22T04:25:11.150Z,74.14
2022-10-22T04:29:16.098Z,73.85
2022-10-22T04:33:20.591Z,73.58
2022-10-22T04:37:23.218Z,71.74
2022-10-22T04:41:27.793Z,69.07
2022-10-22T04:45:30.616Z,68.86
2022-10-22T04:49:34.546Z,68.41
2022-10-22T04:53:37.796Z,68.47
2022-10-22T04:57:40.619Z,68.28
2022-10-22T05:01:44.975Z,68.31
2022-10-22T05:05:48.893Z,68.37
2022-10-22T05:09:51.594Z,68.30
2022-10-22T05:13:54.815Z,68.65
2022-10-22T05:17:57.415Z,69.08
2022-10-22T05:22:03.646Z,69.29
2022-10-22T05:26:07.794Z,69.50
2022-10-22T05:30:11.018Z,69.96
2022-10-22T05:34:13.943Z,71.24
2022-10-22T05:38:18.325Z,71.25
2022-10-22T05:42:20.916Z,70.85
2022-10-22T05:46:25.423Z,70.34
2022-10-22T05:50:28.014Z,70.21
2022-10-22T05:54:31.984Z,70.30
2022-10-22T05:58:35.409Z,69.98
2022-10-22T06:02:37.959Z,69.76
2022-10-22T06:06:44.019Z,69.83
2022-10-22T06:10:48.005Z,69.78
2022-10-22T06:14:50.609Z,69.97
2022-10-22T06:18:53.218Z,69.89
2022-10-22T06:22:55.828Z,69.94
2022-10-22T06:26:59.799Z,70.11
2022-10-22T06:31:04.012Z,69.89
2022-10-22T06:35:07.629Z,69.52
2022-10-22T06:39:12.335Z,69.71
2022-10-22T06:43:16.476Z,69.52
2022-10-22T06:47:19.188Z,69.14
2022-10-22T06:51:25.162Z,68.93
2022-10-22T06:55:27.794Z,68.70
2022-10-22T06:59:31.975Z,68.67
2022-10-22T07:03:34.955Z,68.71
2022-10-22T07:07:37.664Z,67.65
2022-10-22T07:11:42.512Z,67.43
2022-10-22T07:15:46.573Z,67.81
2022-10-22T07:19:51.248Z,68.06
2022-10-22T07:23:54.909Z,67.51
2022-10-22T07:27:57.921Z,67.40
2022-10-22T07:32:01.935Z,67.23
2022-10-22T07:36:06.876Z,67.76
2022-10-22T07:40:10.607Z,68.31
2022-10-22T07:44:13.252Z,68.06
2022-10-22T07:48:17.556Z,68.14
2022-10-22T07:52:20.175Z,68.56
2022-10-22T07:56:22.832Z,68.89
2022-10-22T08:00:25.576Z,68.99
2022-10-22T08:04:29.602Z,68.64
2022-10-22T08:08:33.349Z,68.49
2022-10-22T08:12:36.031Z,67.64
2022-10-22T08:16:38.636Z,67.17
2022-10-22T08:20:43.150Z,66.98
2022-10-22T08:24:45.803Z,65.91
2022-10-22T08:28:48.610Z,65.64
2022-10-22T08:32:53.997Z,64.49
2022-10-22T08:36:58.230Z,63.92
2022-10-22T08:41:09.121Z,64.90
2022-10-22T08:45:16.262Z,65.97
2022-10-22T08:49:22.681Z,67.19
2022-10-22T08:53:38.215Z,66.63
2022-10-22T08:57:52.914Z,66.23
2022-10-22T09:01:55.700Z,65.46
2022-10-22T09:06:06.834Z,64.92
2022-10-22T09:10:13.511Z,64.12
2022-10-22T09:14:19.156Z,63.80
2022-10-22T09:18:36.307Z,63.44
2022-10-22T09:22:44.832Z,62.76
2022-10-22T09:26:48.830Z,62.22
2022-10-22T09:30:51.470Z,62.23
2022-10-22T09:34:57.375Z,62.19
2022-10-22T09:39:00.474Z,61.07
2022-10-22T09:43:04.453Z,60.46
2022-10-22T09:47:08.297Z,60.07
2022-10-22T09:51:17.214Z,60.67
2022-10-22T09:55:20.397Z,60.05
2022-10-22T09:59:30.622Z,59.55
2022-10-22T10:03:33.985Z,59.92
2022-10-22T10:07:37.253Z,60.98
2022-10-22T10:11:44.310Z,61.14
2022-10-22T10:15:55.968Z,62.04
2022-10-22T10:20:14.528Z,62.17
2022-10-22T10:24:24.699Z,61.81
2022-10-22T10:28:42.537Z,61.59
2022-10-22T10:33:10.318Z,61.32
2022-10-22T10:37:21.275Z,60.97
2022-10-22T10:41:30.339Z,60.67
2022-10-22T10:45:42.967Z,61.02
2022-10-22T10:49:48.101Z,60.97
2022-10-22T10:54:09.455Z,60.43
2022-10-22T10:58:19.639Z,59.65
2022-10-22T11:02:59.697Z,59.87
2022-10-22T11:07:16.758Z,59.51
2022-10-22T11:11:32.680Z,58.88
2022-10-22T11:15:38.462Z,59.38
2022-10-22T11:19:51.641Z,60.14
2022-10-22T11:24:04.860Z,60.72
2022-10-22T11:32:26.414Z,61.13
2022-10-22T11:40:38.514Z,60.63
2022-10-22T11:45:00.640Z,60.83
2022-10-22T11:49:16.292Z,60.11
2022-10-22T11:53:29.418Z,59.54
2022-10-22T11:57:39.711Z,58.98
2022-10-22T12:01:43.925Z,59.11
2022-10-22T12:05:47.393Z,57.95
2022-10-22T12:14:18.837Z,56.95
2022-10-22T12:18:26.799Z,56.79
2022-10-22T12:22:32.583Z,55.32
2022-10-22T12:26:35.691Z,55.14
2022-10-22T12:30:41.287Z,53.68
2022-10-22T12:34:47.996Z,55.12
2022-10-22T12:38:51.084Z,54.95
2022-10-22T12:42:55.357Z,54.79
2022-10-22T12:46:59.496Z,54.53
2022-10-22T12:51:07.652Z,53.88
2022-10-22T12:55:16.086Z,54.30
2022-10-22T12:59:21.882Z,54.14
2022-10-22T13:03:30.601Z,55.55
2022-10-22T13:07:40.111Z,56.09
2022-10-22T13:11:49.371Z,55.97
2022-10-22T13:15:54.022Z,55.61
2022-10-22T13:20:05.254Z,54.96
2022-10-22T13:24:21.806Z,54.26
2022-10-22T13:28:25.268Z,54.61
2022-10-22T13:32:33.083Z,55.23
2022-10-22T13:36:37.695Z,56.09
2022-10-22T13:40:40.279Z,55.86
2022-10-22T13:44:42.864Z,56.70
2022-10-22T13:48:47.150Z,55.84
2022-10-22T13:52:54.312Z,54.76
2022-10-22T13:56:57.139Z,54.79
2022-10-22T14:01:02.425Z,52.98
2022-10-22T14:05:09.323Z,55.08
2022-10-22T14:09:16.573Z,55.70
2022-10-22T14:13:20.547Z,56.62
2022-10-22T14:17:23.155Z,57.04
2022-10-22T14:21:26.123Z,57.49
2022-10-22T14:25:31.403Z,58.03
2022-10-22T14:29:34.005Z,58.65
2022-10-22T14:33:36.585Z,59.81
2022-10-22T14:37:39.164Z,61.04
2022-10-22T14:41:43.819Z,61.97
2022-10-22T14:45:46.421Z,61.66
2022-10-22T14:49:48.995Z,61.32
2022-10-22T14:53:51.691Z,60.46
2022-10-22T14:57:56.249Z,60.48
2022-10-22T15:01:58.930Z,59.83
2022-10-22T15:06:01.828Z,60.32
2022-10-22T15:10:05.970Z,60.77
2022-10-22T15:14:10.043Z,61.03
2022-10-22T15:18:12.615Z,58.32
2022-10-22T15:22:16.067Z,58.35
2022-10-22T15:26:19.174Z,57.28
2022-10-22T15:30:23.095Z,58.44
2022-10-22T15:34:27.676Z,59.09
2022-10-22T15:42:38.588Z,58.25
2022-10-22T15:46:43.020Z,58.42
2022-10-22T15:50:45.753Z,58.14
2022-10-22T15:54:48.451Z,58.85
2022-10-22T15:58:54.152Z,59.39
2022-10-22T16:02:58.108Z,59.60
2022-10-22T16:07:00.915Z,60.13
2022-10-22T16:11:03.525Z,59.75
2022-10-22T16:15:07.059Z,59.81
2022-10-22T16:19:12.297Z,60.13
2022-10-22T16:23:18.524Z,59.93
2022-10-22T16:27:21.169Z,59.52
2022-10-22T16:31:23.803Z,59.18
2022-10-22T16:35:27.823Z,58.88
2022-10-22T16:39:30.403Z,59.18
2022-10-22T16:43:32.983Z,59.55
2022-10-22T16:47:35.561Z,59.34
2022-10-22T16:51:40.322Z,59.59
2022-10-22T16:55:42.896Z,60.73
2022-10-22T16:59:45.524Z,61.48
2022-10-22T17:03:48.338Z,61.80
2022-10-22T17:07:53.151Z,61.95
2022-10-22T17:11:56.128Z,62.06
2022-10-22T17:16:02.911Z,63.43
2022-10-22T17:20:10.011Z,64.71
2022-10-22T17:24:13.979Z,66.08
2022-10-22T17:28:16.590Z,66.83
2022-10-22T17:32:19.205Z,67.15
2022-10-22T17:36:23.488Z,67.11
2022-10-22T17:40:27.497Z,66.44
2022-10-22T17:44:30.334Z,67.04
2022-10-22T17:48:33.069Z,67.51
2022-10-22T17:52:36.676Z,67.44
2022-10-22T17:56:40.975Z,67.17
2022-10-22T18:00:43.580Z,67.03
2022-10-22T18:04:46.498Z,66.79
2022-10-22T18:08:49.931Z,67.11
2022-10-22T18:12:53.952Z,67.61
2022-10-22T18:16:56.596Z,67.39
2022-10-22T18:21:00.456Z,67.81
2022-10-22T18:25:04.318Z,67.90
2022-10-22T18:29:08.243Z,67.81
2022-10-22T18:33:12.834Z,68.36
2022-10-22T18:37:15.423Z,68.08
2022-10-22T18:41:18.661Z,68.54
2022-10-22T18:45:22.747Z,69.34
2022-10-22T18:49:27.490Z,69.15
2022-10-22T18:53:30.446Z,68.73
2022-10-22T18:57:33.608Z,69.33
2022-10-22T19:01:37.560Z,70.08
2022-10-22T19:05:45.867Z,70.22
2022-10-22T19:09:48.618Z,71.18
2022-10-22T19:13:51.554Z,71.89
2022-10-22T19:17:55.534Z,72.57
2022-10-22T19:21:59.439Z,73.50
2022-10-22T19:26:05.355Z,73.99
2022-10-22T19:30:08.869Z,73.88
2022-10-22T19:34:13.043Z,72.91
2022-10-22T19:38:15.708Z,72.32
2022-10-22T19:42:18.338Z,72.83
2022-10-22T19:46:22.310Z,72.69
2022-10-22T19:50:26.325Z,73.23
2022-10-22T19:54:28.954Z,73.97
2022-10-22T19:58:31.607Z,73.76
2022-10-22T20:02:34.249Z,73.60
2022-10-22T20:06:38.211Z,73.21
2022-10-22T20:10:40.823Z,73.36
2022-10-22T20:14:43.430Z,72.84
2022-10-22T20:18:46.374Z,73.34
2022-10-22T20:22:50.347Z,74.40
2022-10-22T20:26:52.991Z,74.90
2022-10-22T20:30:55.635Z,75.11
2022-10-22T20:34:58.259Z,75.07
2022-10-22T20:39:06.077Z,75.10
2022-10-22T20:43:10.598Z,74.80
2022-10-22T20:47:15.036Z,74.81
2022-10-22T20:51:17.761Z,73.89
2022-10-22T20:55:22.183Z,74.94
2022-10-22T20:59:32.295Z,75.75
